Time;durP1;ratioP1;P1;durP2;ratioP2;P2;SDS_P1;SDS_P2;PMS_P1;PMS_P2;Temp;Humidity;BMP_temperature;BMP_pressure;BME280_temperature;BME280_humidity;BME280_pressure;Samples;Min_cycle;Max_cycle;Signal;HPM_P1;HPM_P2
2024/01/11 00:02:18;;;;;;;14.03;9.63;;;-4.30;99.90;;;;;;5089608;28;20242;-81
2024/01/11 00:04:46;;;;;;;15.80;9.87;;;-4.40;99.90;;;;;;5089544;28;20204;-81
2024/01/11 00:07:13;;;;;;;16.50;10.30;;;-4.40;99.90;;;;;;5089633;28;20236;-81
2024/01/11 00:09:40;;;;;;;15.77;10.17;;;-4.40;99.90;;;;;;5089095;28;20438;-81
2024/01/11 00:12:08;;;;;;;16.03;9.73;;;-4.40;99.90;;;;;;5089182;28;20208;-81
2024/01/11 00:14:35;;;;;;;10.40;8.07;;;-4.40;99.90;;;;;;5089549;28;20276;-80
2024/01/11 00:17:02;;;;;;;10.77;7.40;;;-4.40;99.90;;;;;;5089479;28;20665;-80
2024/01/11 00:19:29;;;;;;;7.73;5.83;;;-4.40;99.90;;;;;;5089402;28;20211;-80
2024/01/11 00:21:57;;;;;;;6.47;5.70;;;-4.30;99.90;;;;;;5089565;28;20668;-80
2024/01/11 00:24:24;;;;;;;6.53;5.50;;;-4.40;99.90;;;;;;5088947;28;20984;-81
2024/01/11 00:26:51;;;;;;;8.23;6.13;;;-4.30;99.90;;;;;;5089458;28;20285;-81
2024/01/11 00:29:18;;;;;;;10.10;6.63;;;-4.30;99.90;;;;;;5088999;28;20662;-80
2024/01/11 00:31:44;;;;;;;7.83;6.13;;;-4.40;99.90;;;;;;5089081;28;20278;-80
2024/01/11 00:34:11;;;;;;;7.47;6.10;;;-4.50;99.90;;;;;;5088564;28;20317;-80
2024/01/11 00:36:38;;;;;;;9.07;6.33;;;-4.40;99.90;;;;;;5088426;28;20199;-80
2024/01/11 00:39:06;;;;;;;10.50;7.07;;;-4.50;99.90;;;;;;5088770;28;20242;-79
2024/01/11 00:41:33;;;;;;;9.90;6.87;;;-4.50;99.90;;;;;;5088783;28;20596;-79
2024/01/11 00:44:00;;;;;;;8.33;6.80;;;-4.60;99.90;;;;;;5087886;28;20746;-78
2024/01/11 00:46:27;;;;;;;10.60;6.93;;;-4.60;99.90;;;;;;5088441;28;20232;-81
2024/01/11 00:48:54;;;;;;;12.57;7.53;;;-4.60;99.90;;;;;;5088287;28;20729;-81
2024/01/11 00:51:21;;;;;;;11.03;8.03;;;-4.70;99.90;;;;;;5088420;28;20260;-80
2024/01/11 00:53:47;;;;;;;10.30;7.60;;;-4.60;99.90;;;;;;5088284;28;20232;-80
2024/01/11 00:56:19;;;;;;;10.70;7.83;;;-4.70;99.90;;;;;;5088443;28;20297;-81
2024/01/11 00:58:46;;;;;;;10.17;7.37;;;-4.70;99.90;;;;;;5088265;28;20231;-80
2024/01/11 01:01:13;;;;;;;12.80;8.80;;;-4.70;99.90;;;;;;5088592;28;20293;-81
2024/01/11 01:03:40;;;;;;;12.87;8.73;;;-4.70;99.90;;;;;;5088151;28;20238;-80
2024/01/11 01:06:07;;;;;;;14.57;8.93;;;-4.80;99.90;;;;;;5088900;28;20285;-79
2024/01/11 01:08:34;;;;;;;12.80;8.50;;;-5.00;99.90;;;;;;5088780;28;20238;-84
2024/01/11 01:11:01;;;;;;;16.03;8.70;;;-4.90;99.90;;;;;;5089178;28;20286;-83
2024/01/11 01:13:29;;;;;;;11.80;8.07;;;-5.00;99.90;;;;;;5088875;28;20696;-84
2024/01/11 01:15:56;;;;;;;10.73;7.73;;;-5.00;99.90;;;;;;5089056;28;20241;-83
2024/01/11 01:18:23;;;;;;;11.10;7.90;;;-5.00;99.90;;;;;;5088922;28;20298;-84
2024/01/11 01:20:51;;;;;;;13.37;7.80;;;-5.00;99.90;;;;;;5088255;28;20765;-83
2024/01/11 01:23:18;;;;;;;10.27;7.17;;;-5.00;99.90;;;;;;5087659;28;20290;-81
2024/01/11 01:25:45;;;;;;;8.57;6.73;;;-5.10;99.90;;;;;;5088163;28;20289;-81
2024/01/11 01:28:12;;;;;;;10.53;7.37;;;-5.10;99.90;;;;;;5087741;28;20303;-80
2024/01/11 01:30:40;;;;;;;10.20;7.60;;;-5.10;99.90;;;;;;5087237;28;20673;-80
2024/01/11 01:33:07;;;;;;;11.03;6.90;;;-5.10;99.90;;;;;;5087465;28;20242;-80
2024/01/11 01:35:34;;;;;;;12.80;7.73;;;-5.30;99.90;;;;;;5087810;28;20210;-81
2024/01/11 01:38:02;;;;;;;12.50;7.33;;;-5.30;99.90;;;;;;5088168;28;20218;-79
2024/01/11 01:40:31;;;;;;;12.20;7.50;;;-5.30;99.90;;;;;;5087608;28;20222;-79
2024/01/11 01:42:59;;;;;;;11.40;7.23;;;-5.20;99.90;;;;;;5087222;28;20194;-80
2024/01/11 01:45:26;;;;;;;13.13;7.70;;;-5.20;99.90;;;;;;5087291;28;20297;-79
2024/01/11 01:47:56;;;;;;;10.60;7.60;;;-5.20;99.90;;;;;;5087755;28;20630;-80
2024/01/11 01:50:23;;;;;;;10.70;6.47;;;-5.20;99.90;;;;;;5087658;28;20202;-80
2024/01/11 01:52:51;;;;;;;10.37;6.73;;;-5.20;99.90;;;;;;5087352;28;20205;-80
2024/01/11 01:55:19;;;;;;;9.17;6.10;;;-5.10;99.90;;;;;;5087476;28;20209;-80
2024/01/11 01:57:48;;;;;;;8.00;5.77;;;-5.10;99.90;;;;;;5087360;28;20605;-80
2024/01/11 02:00:15;;;;;;;7.13;5.37;;;-5.10;99.90;;;;;;5087585;28;20303;-80
2024/01/11 02:02:44;;;;;;;7.73;5.87;;;-5.10;99.90;;;;;;5087035;28;20614;-80
2024/01/11 02:05:13;;;;;;;8.83;5.90;;;-5.10;99.90;;;;;;5087078;28;20289;-80
2024/01/11 02:07:41;;;;;;;7.97;5.63;;;-5.10;99.90;;;;;;5086648;28;20753;-83
2024/01/11 02:10:09;;;;;;;7.13;5.43;;;-5.20;99.90;;;;;;5087012;28;21012;-81
2024/01/11 02:12:37;;;;;;;7.60;5.07;;;-5.10;99.90;;;;;;5087052;28;20665;-81
2024/01/11 02:15:05;;;;;;;6.93;5.00;;;-5.10;99.90;;;;;;5087091;28;20223;-82
2024/01/11 02:17:32;;;;;;;7.83;4.80;;;-5.10;99.90;;;;;;5086724;28;20294;-80
2024/01/11 02:19:59;;;;;;;6.77;4.93;;;-5.00;99.90;;;;;;5086865;28;20210;-80
2024/01/11 02:22:33;;;;;;;6.40;5.43;;;-5.00;99.90;;;;;;5086802;28;20644;-80
2024/01/11 02:25:02;;;;;;;9.67;5.17;;;-4.90;99.90;;;;;;5087235;28;20286;-80
2024/01/11 02:27:29;;;;;;;7.63;5.27;;;-4.80;99.90;;;;;;5086270;28;20207;-79
2024/01/11 02:29:55;;;;;;;8.60;5.43;;;-4.80;99.90;;;;;;5068061;28;20218;-79
2024/01/11 02:32:23;;;;;;;8.83;5.50;;;-4.80;99.90;;;;;;5066748;28;20296;-84
2024/01/11 02:34:50;;;;;;;6.67;5.17;;;-4.90;99.90;;;;;;5087031;28;20263;-82
2024/01/11 02:37:18;;;;;;;7.37;5.07;;;-5.00;99.90;;;;;;5086618;28;20768;-82
2024/01/11 02:39:45;;;;;;;7.60;5.50;;;-5.00;99.90;;;;;;5087101;28;20254;-82
2024/01/11 02:42:13;;;;;;;6.97;4.67;;;-5.00;99.90;;;;;;5086369;28;20314;-82
2024/01/11 02:44:40;;;;;;;5.47;4.47;;;-4.90;99.90;;;;;;5086577;28;20206;-85
2024/01/11 02:47:07;;;;;;;6.00;4.40;;;-4.80;99.90;;;;;;5087757;28;20711;-84
2024/01/11 02:49:34;;;;;;;6.23;4.63;;;-4.80;99.90;;;;;;5088095;28;20268;-85
2024/01/11 02:52:01;;;;;;;5.67;4.30;;;-4.80;99.90;;;;;;5087832;28;20207;-85
2024/01/11 02:54:27;;;;;;;5.47;4.27;;;-4.80;99.90;;;;;;5087535;28;20285;-83
2024/01/11 02:56:57;;;;;;;7.40;4.67;;;-4.80;99.90;;;;;;5087994;28;20310;-85
2024/01/11 02:59:25;;;;;;;6.53;4.77;;;-4.90;99.90;;;;;;5087330;28;20207;-83
2024/01/11 03:01:52;;;;;;;5.67;4.07;;;-4.90;99.90;;;;;;5086944;28;20203;-82
2024/01/11 03:04:19;;;;;;;6.23;4.00;;;-5.00;99.90;;;;;;5086406;28;20740;-81
2024/01/11 03:06:45;;;;;;;5.83;4.40;;;-4.90;99.90;;;;;;5086666;28;20704;-81
2024/01/11 03:09:13;;;;;;;5.10;3.80;;;-5.00;99.90;;;;;;5086419;28;20809;-82
2024/01/11 03:11:40;;;;;;;6.07;4.03;;;-5.10;99.90;;;;;;5086586;28;20285;-81
2024/01/11 03:14:07;;;;;;;6.03;4.10;;;-5.10;99.90;;;;;;5086819;28;21083;-82
2024/01/11 03:16:35;;;;;;;5.20;4.20;;;-5.10;99.90;;;;;;5086668;28;20210;-82
2024/01/11 03:19:02;;;;;;;4.60;3.80;;;-5.10;99.90;;;;;;5087763;28;20206;-81
2024/01/11 03:21:29;;;;;;;4.63;3.80;;;-5.00;99.90;;;;;;5090100;28;20694;-80
2024/01/11 03:23:56;;;;;;;5.17;3.70;;;-4.90;99.90;;;;;;5089949;28;20299;-80
2024/01/11 03:26:23;;;;;;;4.13;3.73;;;-5.00;99.90;;;;;;5090807;28;20235;-84
2024/01/11 03:28:50;;;;;;;5.50;3.80;;;-5.00;99.90;;;;;;5081045;28;20208;-84
2024/01/11 03:31:17;;;;;;;4.40;3.20;;;-5.00;99.90;;;;;;5078662;28;20286;-83
2024/01/11 03:33:45;;;;;;;3.70;3.23;;;-5.10;99.90;;;;;;5069598;28;20460;-83
2024/01/11 03:36:12;;;;;;;4.90;3.37;;;-5.20;99.90;;;;;;5069296;28;20199;-83
2024/01/11 03:38:39;;;;;;;3.87;3.20;;;-5.20;99.90;;;;;;5069200;28;20277;-82
2024/01/11 03:41:09;;;;;;;4.60;3.30;;;-5.00;99.90;;;;;;5077270;28;20302;-83
2024/01/11 03:43:36;;;;;;;4.30;2.90;;;-5.00;99.90;;;;;;5088772;28;20210;-83
2024/01/11 03:46:03;;;;;;;5.40;3.70;;;-5.00;99.90;;;;;;5088799;28;20266;-83
2024/01/11 03:48:30;;;;;;;5.90;3.60;;;-5.00;99.90;;;;;;5088367;28;20211;-84
2024/01/11 03:50:58;;;;;;;4.60;3.53;;;-4.90;99.90;;;;;;5089159;28;20295;-85
2024/01/11 03:53:25;;;;;;;5.10;3.60;;;-4.90;99.90;;;;;;5089591;28;20923;-83
2024/01/11 03:55:52;;;;;;;5.10;3.70;;;-4.80;99.90;;;;;;5088547;28;20345;-85
2024/01/11 03:58:18;;;;;;;4.07;3.47;;;-4.90;99.90;;;;;;5088916;28;20214;-84
2024/01/11 04:00:45;;;;;;;6.27;3.83;;;-4.80;99.90;;;;;;5087275;28;20657;-84
2024/01/11 04:03:12;;;;;;;5.50;3.67;;;-4.70;99.90;;;;;;5090188;28;20629;-82
2024/01/11 04:05:39;;;;;;;5.60;3.63;;;-4.70;99.90;;;;;;5090725;28;20238;-82
2024/01/11 04:08:08;;;;;;;6.13;4.60;;;-4.60;99.90;;;;;;5088828;28;20644;-81
2024/01/11 04:10:35;;;;;;;6.10;4.30;;;-4.60;99.90;;;;;;5088624;28;20241;-82
2024/01/11 04:13:02;;;;;;;6.30;3.93;;;-4.60;99.90;;;;;;5089266;28;20305;-82
2024/01/11 04:15:28;;;;;;;7.07;4.40;;;-4.60;99.90;;;;;;5089612;28;20334;-82
2024/01/11 04:17:55;;;;;;;6.00;4.30;;;-4.60;99.90;;;;;;5089345;28;20211;-82
2024/01/11 04:20:24;;;;;;;6.37;4.27;;;-4.60;99.90;;;;;;5089274;28;20216;-80
2024/01/11 04:22:50;;;;;;;9.27;4.53;;;-4.50;99.90;;;;;;5089634;28;20215;-82
2024/01/11 04:25:20;;;;;;;8.47;3.83;;;-4.50;99.90;;;;;;5089782;28;20227;-82
2024/01/11 04:27:47;;;;;;;8.40;4.77;;;-4.50;99.90;;;;;;5089327;28;20717;-81
2024/01/11 04:30:14;;;;;;;7.27;4.87;;;-4.40;99.90;;;;;;5089238;28;20221;-82
2024/01/11 04:32:41;;;;;;;8.27;4.43;;;-4.40;99.90;;;;;;5088726;28;20211;-82
2024/01/11 04:35:08;;;;;;;5.60;3.80;;;-4.40;99.90;;;;;;5089256;28;20838;-82
2024/01/11 04:37:36;;;;;;;6.33;4.10;;;-4.40;99.90;;;;;;5089716;28;20298;-82
2024/01/11 04:40:03;;;;;;;6.57;4.30;;;-4.40;99.90;;;;;;5089369;28;20226;-82
2024/01/11 04:42:32;;;;;;;7.47;4.93;;;-4.50;99.90;;;;;;5088966;28;20728;-83
2024/01/11 04:44:58;;;;;;;7.70;4.03;;;-4.50;99.90;;;;;;5089327;28;20297;-83
2024/01/11 04:47:25;;;;;;;7.73;4.63;;;-4.40;99.90;;;;;;5089136;28;20297;-82
2024/01/11 04:49:52;;;;;;;6.90;4.80;;;-4.40;99.90;;;;;;5089325;28;20230;-82
2024/01/11 04:52:19;;;;;;;9.90;5.50;;;-4.40;99.90;;;;;;5089134;28;20221;-82
2024/01/11 04:54:46;;;;;;;7.50;4.90;;;-4.40;99.90;;;;;;5089142;28;20317;-82
2024/01/11 04:57:13;;;;;;;9.27;4.53;;;-4.30;99.90;;;;;;5089149;28;20210;-81
2024/01/11 04:59:41;;;;;;;8.47;4.63;;;-4.50;99.90;;;;;;5072255;28;20215;-82
2024/01/11 05:02:08;;;;;;;5.80;4.20;;;-4.50;99.90;;;;;;5075960;28;20314;-81
2024/01/11 05:04:35;;;;;;;8.40;4.70;;;-4.50;99.90;;;;;;5089156;28;20226;-82
2024/01/11 05:07:02;;;;;;;8.37;5.20;;;-4.50;99.90;;;;;;5088848;28;20203;-82
2024/01/11 05:09:29;;;;;;;5.97;4.40;;;-4.40;99.90;;;;;;5088560;28;20824;-81
2024/01/11 05:11:56;;;;;;;9.80;4.90;;;-4.50;99.90;;;;;;5089085;28;20564;-81
2024/01/11 05:14:23;;;;;;;6.57;4.40;;;-4.40;99.90;;;;;;5088577;28;20229;-81
2024/01/11 05:16:51;;;;;;;8.00;5.13;;;-4.40;99.90;;;;;;5085265;28;20301;-81
2024/01/11 05:19:18;;;;;;;9.20;4.30;;;-4.40;99.90;;;;;;5088812;28;20289;-81
2024/01/11 05:21:45;;;;;;;9.90;4.60;;;-4.30;99.90;;;;;;5088491;28;20654;-81
2024/01/11 05:24:12;;;;;;;7.30;4.67;;;-4.20;99.90;;;;;;5088408;28;20242;-81
2024/01/11 05:26:39;;;;;;;10.97;4.23;;;-4.20;99.90;;;;;;5088319;28;20293;-82
2024/01/11 05:29:05;;;;;;;10.17;5.10;;;-4.10;99.90;;;;;;5088412;28;20234;-81
2024/01/11 05:31:32;;;;;;;9.63;5.30;;;-4.10;99.90;;;;;;5088373;28;20294;-81
2024/01/11 05:34:01;;;;;;;9.37;4.93;;;-4.10;99.90;;;;;;5088293;28;20318;-82
2024/01/11 05:36:27;;;;;;;10.47;5.40;;;-4.10;99.90;;;;;;5088104;28;20244;-81
2024/01/11 05:38:54;;;;;;;9.53;4.97;;;-4.10;99.90;;;;;;5088162;28;20293;-81
2024/01/11 05:41:21;;;;;;;10.63;5.80;;;-4.20;99.90;;;;;;5087612;28;20736;-83
2024/01/11 05:43:48;;;;;;;11.13;5.73;;;-4.20;99.90;;;;;;5087095;28;20306;-82
2024/01/11 05:46:15;;;;;;;11.57;5.67;;;-4.30;99.90;;;;;;5087584;28;20298;-83
2024/01/11 05:48:42;;;;;;;9.33;5.10;;;-4.20;99.90;;;;;;5087655;28;20325;-83
2024/01/11 05:51:11;;;;;;;9.70;5.73;;;-4.10;99.90;;;;;;5087764;28;20294;-82
2024/01/11 05:53:37;;;;;;;12.07;6.30;;;-4.10;99.90;;;;;;5087832;28;20253;-81
2024/01/11 05:56:09;;;;;;;12.43;6.17;;;-4.10;99.90;;;;;;5087543;28;20349;-81
2024/01/11 05:58:36;;;;;;;12.80;6.27;;;-4.10;99.90;;;;;;5079799;28;20210;-82
2024/01/11 06:01:04;;;;;;;14.40;6.77;;;-4.00;99.90;;;;;;5080266;28;20496;-82
2024/01/11 06:03:33;;;;;;;14.43;6.20;;;-4.00;99.90;;;;;;5087222;28;20215;-82
2024/01/11 06:06:01;;;;;;;13.07;7.30;;;-4.00;99.90;;;;;;5087921;28;20307;-82
2024/01/11 06:08:30;;;;;;;12.27;5.60;;;-4.00;99.90;;;;;;5087385;28;20270;-81
2024/01/11 06:10:57;;;;;;;10.27;5.47;;;-4.00;99.90;;;;;;5087967;28;20195;-81
2024/01/11 06:13:24;;;;;;;13.73;6.57;;;-4.00;99.90;;;;;;5087093;28;20252;-81
2024/01/11 06:15:51;;;;;;;12.30;6.57;;;-4.00;99.90;;;;;;5087394;28;20269;-82
2024/01/11 06:18:18;;;;;;;11.33;5.63;;;-4.00;99.90;;;;;;5087564;28;20294;-81
2024/01/11 06:20:44;;;;;;;15.47;6.70;;;-4.00;99.90;;;;;;5087298;28;20205;-81
2024/01/11 06:23:11;;;;;;;11.43;6.87;;;-3.90;99.90;;;;;;5087375;28;20302;-81
2024/01/11 06:25:40;;;;;;;14.53;6.87;;;-3.90;99.90;;;;;;5087247;28;20679;-80
2024/01/11 06:28:09;;;;;;;18.67;8.83;;;-3.90;99.90;;;;;;5083339;28;20571;-80
2024/01/11 06:30:36;;;;;;;23.20;12.37;;;-3.80;99.90;;;;;;5067257;28;20581;-81
2024/01/11 06:33:03;;;;;;;18.93;10.27;;;-3.80;99.90;;;;;;5067417;28;20549;-81
2024/01/11 06:35:31;;;;;;;15.40;7.23;;;-3.90;99.90;;;;;;5066888;28;20334;-81
2024/01/11 06:37:57;;;;;;;13.53;6.37;;;-3.80;99.90;;;;;;5067583;28;20291;-82
2024/01/11 06:40:25;;;;;;;15.67;7.17;;;-3.80;99.90;;;;;;5067371;28;20275;-80
2024/01/11 06:42:53;;;;;;;14.33;7.63;;;-3.70;99.90;;;;;;5067325;28;20218;-81
2024/01/11 06:45:20;;;;;;;12.60;6.97;;;-3.50;99.90;;;;;;5066833;28;20759;-80
2024/01/11 06:47:48;;;;;;;12.07;6.47;;;-3.40;99.90;;;;;;5067429;28;20743;-81
2024/01/11 06:50:16;;;;;;;13.27;7.07;;;-3.40;99.90;;;;;;5067104;28;20296;-80
2024/01/11 06:52:42;;;;;;;9.70;6.57;;;-3.40;99.90;;;;;;5067878;28;20290;-80
2024/01/11 06:55:10;;;;;;;13.63;6.87;;;-3.50;99.90;;;;;;5081189;28;20313;-80
2024/01/11 06:57:37;;;;;;;12.13;6.97;;;-3.50;99.90;;;;;;5091448;28;20553;-80
2024/01/11 07:00:08;;;;;;;14.93;6.93;;;-3.60;99.90;;;;;;5071623;28;20214;-81
2024/01/11 07:02:35;;;;;;;15.10;7.37;;;-3.60;99.90;;;;;;5071450;28;20210;-81
2024/01/11 07:05:02;;;;;;;14.53;7.57;;;-3.60;99.90;;;;;;5071077;28;20288;-82
2024/01/11 07:07:28;;;;;;;15.03;7.07;;;-3.60;99.90;;;;;;5070971;28;20324;-83
2024/01/11 07:09:56;;;;;;;17.37;7.60;;;-3.60;99.90;;;;;;5090861;28;20346;-82
2024/01/11 07:12:22;;;;;;;15.93;6.87;;;-3.70;99.90;;;;;;5091086;28;20212;-81
2024/01/11 07:14:49;;;;;;;14.40;7.57;;;-3.70;99.90;;;;;;5090864;28;20564;-82
2024/01/11 07:17:18;;;;;;;14.67;7.53;;;-3.70;99.90;;;;;;5091049;28;20208;-79
2024/01/11 07:19:44;;;;;;;17.07;8.03;;;-3.70;99.90;;;;;;5090779;28;20300;-80
2024/01/11 07:22:11;;;;;;;13.67;7.73;;;-3.70;99.90;;;;;;5090941;28;20227;-81
2024/01/11 07:24:38;;;;;;;20.03;7.70;;;-3.70;99.90;;;;;;5091131;28;20297;-81
2024/01/11 07:27:05;;;;;;;20.20;8.37;;;-3.70;99.90;;;;;;5091036;28;20210;-81
2024/01/11 07:29:33;;;;;;;15.60;7.63;;;-3.70;99.90;;;;;;5090390;28;20215;-80
2024/01/11 07:31:59;;;;;;;12.87;7.67;;;-3.70;99.90;;;;;;5090074;28;20226;-82
2024/01/11 07:34:28;;;;;;;15.17;7.67;;;-3.70;99.90;;;;;;5090639;28;20294;-81
2024/01/11 07:36:56;;;;;;;15.07;7.47;;;-3.70;99.90;;;;;;5090298;28;20323;-80
2024/01/11 07:39:24;;;;;;;18.17;8.73;;;-3.70;99.90;;;;;;5090234;28;20277;-81
2024/01/11 07:41:51;;;;;;;13.90;7.67;;;-3.70;99.90;;;;;;5090576;28;20215;-81
2024/01/11 07:44:18;;;;;;;18.70;8.13;;;-3.60;99.90;;;;;;5090753;28;20205;-81
2024/01/11 07:46:45;;;;;;;19.60;8.17;;;-3.60;99.90;;;;;;5090656;28;20302;-81
2024/01/11 07:49:12;;;;;;;15.90;7.97;;;-3.60;99.90;;;;;;5090665;28;20325;-81
2024/01/11 07:51:40;;;;;;;17.67;8.87;;;-3.60;99.90;;;;;;5090339;28;20251;-80
2024/01/11 07:54:07;;;;;;;15.83;7.87;;;-3.60;99.90;;;;;;5090612;28;20301;-81
2024/01/11 07:56:34;;;;;;;16.53;7.73;;;-3.60;99.90;;;;;;5090654;28;20228;-80
2024/01/11 07:59:01;;;;;;;15.37;7.67;;;-3.50;99.90;;;;;;5090415;28;20209;-81
2024/01/11 08:01:28;;;;;;;18.40;8.00;;;-3.50;99.90;;;;;;5090297;28;20298;-80
2024/01/11 08:03:55;;;;;;;17.87;8.23;;;-3.50;99.90;;;;;;5090401;28;20298;-80
2024/01/11 08:06:22;;;;;;;17.47;8.30;;;-3.50;99.90;;;;;;5088946;28;20298;-81
2024/01/11 08:08:51;;;;;;;16.97;7.87;;;-3.50;99.90;;;;;;5090205;28;20337;-81
2024/01/11 08:11:18;;;;;;;17.83;8.43;;;-3.50;99.90;;;;;;5090537;28;20236;-81
2024/01/11 08:13:45;;;;;;;15.13;8.10;;;-3.50;99.90;;;;;;5089991;28;20205;-80
2024/01/11 08:16:17;;;;;;;23.00;8.80;;;-3.50;99.90;;;;;;5089320;28;20237;-81
2024/01/11 08:18:45;;;;;;;18.57;8.50;;;-3.40;99.90;;;;;;5090236;28;20632;-81
2024/01/11 08:21:12;;;;;;;17.67;8.07;;;-3.40;99.90;;;;;;5089999;28;20998;-81
2024/01/11 08:23:44;;;;;;;17.27;7.93;;;-3.40;99.90;;;;;;5090711;28;20249;-80
2024/01/11 08:26:12;;;;;;;16.77;8.53;;;-3.40;99.90;;;;;;5090057;28;20199;-81
2024/01/11 08:28:39;;;;;;;17.33;8.37;;;-3.40;99.90;;;;;;5090318;28;20254;-81
2024/01/11 08:31:07;;;;;;;18.87;8.33;;;-3.40;99.90;;;;;;5090039;28;20208;-80
2024/01/11 08:33:34;;;;;;;19.27;8.47;;;-3.40;99.90;;;;;;5090247;28;20264;-81
2024/01/11 08:36:03;;;;;;;16.63;8.40;;;-3.30;99.90;;;;;;5090319;28;20228;-81
2024/01/11 08:38:30;;;;;;;16.00;8.13;;;-3.30;99.90;;;;;;5090155;28;20203;-81
2024/01/11 08:40:58;;;;;;;16.63;8.10;;;-3.20;99.90;;;;;;5090379;28;20231;-80
2024/01/11 08:43:26;;;;;;;17.90;9.57;;;-3.20;99.90;;;;;;5089907;28;20596;-81
2024/01/11 08:45:54;;;;;;;17.67;8.80;;;-3.20;99.90;;;;;;5089483;28;20217;-81
2024/01/11 08:48:20;;;;;;;23.93;9.90;;;-3.20;99.90;;;;;;5089550;28;20203;-81
2024/01/11 08:50:47;;;;;;;15.30;8.30;;;-3.20;99.90;;;;;;5089664;28;20298;-81
2024/01/11 08:53:15;;;;;;;19.37;8.73;;;-3.20;99.90;;;;;;5089456;28;20745;-80
2024/01/11 08:55:42;;;;;;;21.17;9.00;;;-3.20;99.90;;;;;;5089707;28;20321;-81
2024/01/11 08:58:10;;;;;;;21.97;9.37;;;-3.10;99.90;;;;;;5085059;28;20673;-81
2024/01/11 09:00:38;;;;;;;16.67;8.83;;;-3.20;99.90;;;;;;5074379;28;20195;-82
2024/01/11 09:03:05;;;;;;;21.43;9.47;;;-3.20;99.90;;;;;;5088555;28;20740;-81
2024/01/11 09:05:32;;;;;;;21.30;9.13;;;-3.20;99.90;;;;;;5089999;28;20656;-81
2024/01/11 09:08:00;;;;;;;21.60;9.90;;;-3.20;99.90;;;;;;5089200;28;20214;-80
2024/01/11 09:10:27;;;;;;;21.97;10.33;;;-3.10;99.90;;;;;;5089068;28;20236;-81
2024/01/11 09:12:54;;;;;;;22.80;9.50;;;-3.20;99.90;;;;;;5089318;28;20207;-81
2024/01/11 09:15:21;;;;;;;20.50;9.70;;;-3.20;99.90;;;;;;5089544;28;20207;-81
2024/01/11 09:17:50;;;;;;;21.33;10.17;;;-3.20;99.90;;;;;;5088355;28;20290;-81
2024/01/11 09:20:18;;;;;;;21.53;9.23;;;-3.20;99.90;;;;;;5089322;28;20210;-81
2024/01/11 09:22:46;;;;;;;19.67;9.93;;;-3.20;99.90;;;;;;5088977;28;20205;-80
2024/01/11 09:25:13;;;;;;;23.67;10.13;;;-3.20;99.90;;;;;;5089027;28;20215;-81
2024/01/11 09:27:40;;;;;;;24.40;10.43;;;-3.30;99.90;;;;;;5088679;28;20273;-79
2024/01/11 09:30:08;;;;;;;24.60;9.90;;;-3.30;99.90;;;;;;5088586;28;20198;-80
2024/01/11 09:32:35;;;;;;;21.10;9.50;;;-3.20;99.90;;;;;;5088866;28;20251;-80
2024/01/11 09:35:04;;;;;;;23.47;10.23;;;-3.20;99.90;;;;;;5088077;28;20298;-80
2024/01/11 09:37:31;;;;;;;25.70;10.80;;;-3.20;99.90;;;;;;5087939;28;20238;-81
2024/01/11 09:40:00;;;;;;;21.73;10.57;;;-3.20;99.90;;;;;;5088434;28;20231;-81
2024/01/11 09:42:28;;;;;;;24.57;10.80;;;-3.10;99.90;;;;;;5088062;28;20210;-82
2024/01/11 09:44:56;;;;;;;23.77;10.17;;;-3.20;99.90;;;;;;5088053;28;20211;-81
2024/01/11 09:47:24;;;;;;;24.50;10.20;;;-3.20;99.90;;;;;;5087634;28;20701;-81
2024/01/11 09:49:52;;;;;;;21.97;10.63;;;-3.20;99.90;;;;;;5088105;28;20311;-80
2024/01/11 09:52:25;;;;;;;24.23;10.13;;;-3.20;99.90;;;;;;5087654;28;20295;-82
2024/01/11 09:54:52;;;;;;;26.17;11.40;;;-3.30;99.90;;;;;;5087740;28;20199;-81
2024/01/11 09:57:30;;;;;;;23.23;11.07;;;-3.30;99.90;;;;;;5087381;28;20346;-81
2024/01/11 09:59:58;;;;;;;22.53;9.60;;;-3.30;99.90;;;;;;5068243;28;20284;-80
2024/01/11 10:02:26;;;;;;;22.83;10.43;;;-3.30;99.90;;;;;;5067472;28;20228;-80
2024/01/11 10:04:53;;;;;;;26.07;11.87;;;-3.30;99.90;;;;;;5067677;28;20205;-82
2024/01/11 10:07:24;;;;;;;25.40;10.23;;;-3.30;99.90;;;;;;5067718;28;20273;-81
2024/01/11 10:09:51;;;;;;;21.33;10.50;;;-3.30;99.90;;;;;;5067544;28;20783;-80
2024/01/11 10:12:20;;;;;;;24.93;10.37;;;-3.30;99.90;;;;;;5067829;28;20637;-81
2024/01/11 10:14:47;;;;;;;24.00;10.27;;;-3.30;99.90;;;;;;5067723;28;20731;-82
2024/01/11 10:17:14;;;;;;;22.43;10.17;;;-3.30;99.90;;;;;;5067449;28;20273;-81
2024/01/11 10:19:41;;;;;;;28.90;11.17;;;-3.20;99.90;;;;;;5067886;28;20297;-81
2024/01/11 10:22:12;;;;;;;26.67;9.83;;;-3.20;99.90;;;;;;5067832;28;20264;-80
2024/01/11 10:24:41;;;;;;;25.57;10.67;;;-3.20;99.90;;;;;;5067418;28;20551;-81
2024/01/11 10:27:10;;;;;;;20.70;10.03;;;-3.10;99.90;;;;;;5068071;28;20218;-81
2024/01/11 10:29:37;;;;;;;21.47;9.60;;;-3.10;99.90;;;;;;5084091;28;20237;-79
2024/01/11 10:32:05;;;;;;;24.30;10.07;;;-3.00;99.90;;;;;;5088079;28;20249;-80
2024/01/11 10:34:33;;;;;;;25.07;10.63;;;-3.00;99.90;;;;;;5088273;28;20241;-80
2024/01/11 10:37:00;;;;;;;25.63;11.47;;;-3.00;99.90;;;;;;5087958;28;20229;-79
2024/01/11 10:39:28;;;;;;;25.33;10.23;;;-3.00;99.90;;;;;;5087684;28;20281;-81
2024/01/11 10:42:05;;;;;;;23.67;10.47;;;-2.90;99.90;;;;;;5088476;28;20573;-80
2024/01/11 10:44:35;;;;;;;21.10;9.83;;;-2.90;99.90;;;;;;5088325;28;20259;-81
2024/01/11 10:47:06;;;;;;;25.97;11.13;;;-2.80;99.90;;;;;;5088182;28;20199;-80
2024/01/11 10:49:34;;;;;;;23.33;10.37;;;-2.80;99.90;;;;;;5088500;28;20195;-82
2024/01/11 10:52:04;;;;;;;26.63;11.57;;;-2.80;99.90;;;;;;5088523;28;20700;-80
2024/01/11 10:54:32;;;;;;;23.10;10.90;;;-2.70;99.90;;;;;;5087946;28;20203;-81
2024/01/11 10:57:02;;;;;;;23.10;10.67;;;-2.60;99.90;;;;;;5088596;28;20299;-81
2024/01/11 10:59:32;;;;;;;23.73;10.93;;;-2.60;99.90;;;;;;5073153;28;20432;-81
2024/01/11 11:02:06;;;;;;;24.00;10.77;;;-2.50;99.90;;;;;;5083350;28;20203;-80
2024/01/11 11:04:34;;;;;;;23.07;10.93;;;-2.50;99.90;;;;;;5088284;28;20195;-81
2024/01/11 11:07:03;;;;;;;24.40;11.23;;;-2.50;99.90;;;;;;5088105;28;20518;-82
2024/01/11 11:09:33;;;;;;;23.57;11.07;;;-2.50;99.90;;;;;;5088286;28;20230;-81
2024/01/11 11:12:03;;;;;;;23.07;9.83;;;-2.40;99.90;;;;;;5088667;28;20218;-81
2024/01/11 11:14:32;;;;;;;24.97;10.77;;;-2.40;99.90;;;;;;5088167;28;20205;-81
2024/01/11 11:16:59;;;;;;;24.30;10.67;;;-2.40;99.90;;;;;;5088643;28;20294;-81
2024/01/11 11:19:26;;;;;;;22.50;11.30;;;-2.40;99.90;;;;;;5087650;28;20229;-81
2024/01/11 11:21:53;;;;;;;19.07;9.93;;;-2.40;99.90;;;;;;5087731;28;20235;-80
2024/01/11 11:24:21;;;;;;;24.73;10.80;;;-2.40;99.90;;;;;;5087340;28;20297;-82
2024/01/11 11:26:48;;;;;;;25.20;11.80;;;-2.40;99.90;;;;;;5087954;28;20284;-81
2024/01/11 11:29:17;;;;;;;24.10;10.77;;;-2.30;99.90;;;;;;5087612;28;20206;-81
2024/01/11 11:31:47;;;;;;;24.07;10.97;;;-2.30;99.90;;;;;;5087479;28;20264;-80
2024/01/11 11:34:14;;;;;;;26.07;11.13;;;-2.30;99.90;;;;;;5087445;28;20210;-79
2024/01/11 11:36:42;;;;;;;28.13;11.47;;;-2.20;99.90;;;;;;5087297;28;20218;-80
2024/01/11 11:39:12;;;;;;;25.20;11.43;;;-2.20;99.90;;;;;;5087343;28;20240;-82
2024/01/11 11:41:40;;;;;;;23.80;11.37;;;-2.20;99.90;;;;;;5088921;28;20223;-80
2024/01/11 11:44:07;;;;;;;28.10;12.07;;;-2.10;99.90;;;;;;5090798;28;20209;-80
2024/01/11 11:46:35;;;;;;;23.47;10.43;;;-2.10;99.90;;;;;;5090725;28;20214;-80
2024/01/11 11:49:02;;;;;;;18.53;10.27;;;-2.10;99.90;;;;;;5090713;28;20247;-81
2024/01/11 11:51:29;;;;;;;26.80;12.40;;;-2.10;99.90;;;;;;5090394;28;20423;-80
2024/01/11 11:53:58;;;;;;;25.63;12.10;;;-2.00;99.90;;;;;;5090689;28;20291;-81
2024/01/11 11:56:25;;;;;;;24.40;11.17;;;-2.00;99.90;;;;;;5090179;28;20213;-80
2024/01/11 11:58:54;;;;;;;24.03;11.00;;;-2.00;99.90;;;;;;5080249;28;20251;-80
2024/01/11 12:01:22;;;;;;;27.70;12.27;;;-1.90;99.90;;;;;;5090499;28;20214;-80
2024/01/11 12:03:50;;;;;;;24.63;11.60;;;-1.90;99.90;;;;;;5090502;28;20290;-80
2024/01/11 12:06:18;;;;;;;24.77;11.63;;;-1.90;99.90;;;;;;5090174;28;20663;-81
2024/01/11 12:08:46;;;;;;;27.47;11.83;;;-1.90;99.90;;;;;;5090045;28;20249;-80
2024/01/11 12:11:18;;;;;;;22.37;11.00;;;-1.90;99.90;;;;;;5090214;28;20296;-80
2024/01/11 12:13:45;;;;;;;25.63;12.10;;;-1.70;99.90;;;;;;5090151;28;20248;-80
2024/01/11 12:16:12;;;;;;;25.83;12.33;;;-1.70;99.90;;;;;;5090481;28;20202;-80
2024/01/11 12:18:40;;;;;;;31.10;12.50;;;-1.60;99.90;;;;;;5090297;28;20298;-80
2024/01/11 12:21:08;;;;;;;26.40;12.60;;;-1.60;99.90;;;;;;5090509;28;20286;-81
2024/01/11 12:23:38;;;;;;;22.13;11.73;;;-1.60;99.90;;;;;;5090401;28;20206;-80
2024/01/11 12:26:07;;;;;;;26.77;12.60;;;-1.60;99.90;;;;;;5090220;28;20247;-79
2024/01/11 12:28:35;;;;;;;29.13;12.73;;;-1.60;99.90;;;;;;5090017;28;20303;-80
2024/01/11 12:31:02;;;;;;;29.10;11.47;;;-1.60;99.90;;;;;;5090012;28;20211;-81
2024/01/11 12:33:30;;;;;;;27.83;12.67;;;-1.60;99.90;;;;;;5089302;28;20210;-81
2024/01/11 12:35:57;;;;;;;22.40;11.50;;;-1.60;99.90;;;;;;5090259;28;20441;-80
2024/01/11 12:38:26;;;;;;;22.67;11.57;;;-1.60;99.90;;;;;;5090040;28;20242;-80
2024/01/11 12:40:53;;;;;;;28.83;12.70;;;-1.50;99.90;;;;;;5089426;28;20236;-80